Time;durP1;ratioP1;P1;durP2;ratioP2;P2;SDS_P1;SDS_P2;PMS_P1;PMS_P2;Temp;Humidity;BMP_temperature;BMP_pressure;BME280_temperature;BME280_humidity;BME280_pressure;Samples;Min_cycle;Max_cycle;Signal;HPM_P1;HPM_P2
2022/04/23 00:02:04;;;;;;;4.55;2.55;;;;;;;;;;5051925;28;20028;-36
2022/04/23 00:04:30;;;;;;;3.47;2.30;;;;;;;;;;5051872;28;20037;-36
2022/04/23 00:06:59;;;;;;;4.18;2.35;;;;;;;;;;5051524;28;20024;-37
2022/04/23 00:09:24;;;;;;;5.50;2.80;;;;;;;;;;5050416;28;20422;-37
2022/04/23 00:11:52;;;;;;;4.82;2.92;;;;;;;;;;5051513;28;20075;-37
2022/04/23 00:14:18;;;;;;;3.60;2.53;;;;;;;;;;5051819;28;20128;-37
2022/04/23 00:16:44;;;;;;;3.35;2.25;;;;;;;;;;5051393;28;20471;-37
2022/04/23 00:19:10;;;;;;;3.33;2.20;;;;;;;;;;5051475;28;20037;-36
2022/04/23 00:21:35;;;;;;;8.93;3.03;;;;;;;;;;5051680;28;20059;-36
2022/04/23 00:24:00;;;;;;;7.93;3.25;;;;;;;;;;5051547;28;20467;-36
2022/04/23 00:26:26;;;;;;;4.78;2.70;;;;;;;;;;5051600;28;20449;-37
2022/04/23 00:28:51;;;;;;;8.15;3.13;;;;;;;;;;5050008;28;20029;-36
2022/04/23 00:31:17;;;;;;;6.88;2.72;;;;;;;;;;5051211;28;20029;-36
2022/04/23 00:33:42;;;;;;;4.32;2.78;;;;;;;;;;5051287;28;20107;-36
2022/04/23 00:36:10;;;;;;;5.03;3.05;;;;;;;;;;5051260;28;20483;-36
2022/04/23 00:38:40;;;;;;;4.95;2.80;;;;;;;;;;5051416;28;20646;-36
2022/04/23 00:41:05;;;;;;;2.95;2.13;;;;;;;;;;5051540;28;20384;-37
2022/04/23 00:43:33;;;;;;;4.78;2.70;;;;;;;;;;5051799;28;20036;-37
2022/04/23 00:45:59;;;;;;;5.72;3.70;;;;;;;;;;5055314;28;20379;-36
2022/04/23 00:48:26;;;;;;;4.45;2.40;;;;;;;;;;5054118;28;20033;-36
2022/04/23 00:50:53;;;;;;;3.72;2.78;;;;;;;;;;5055142;28;20509;-36
2022/04/23 00:53:19;;;;;;;5.93;2.72;;;;;;;;;;5055112;28;20104;-37
2022/04/23 00:55:46;;;;;;;4.65;2.50;;;;;;;;;;5053760;28;20025;-36
2022/04/23 00:58:12;;;;;;;6.28;3.00;;;;;;;;;;5055194;28;20025;-36
2022/04/23 01:00:40;;;;;;;4.55;2.22;;;;;;;;;;5055004;28;20047;-36
2022/04/23 01:03:06;;;;;;;4.70;2.50;;;;;;;;;;5055079;28;20707;-36
2022/04/23 01:05:31;;;;;;;3.88;2.65;;;;;;;;;;5054901;28;20064;-36
2022/04/23 01:08:00;;;;;;;4.15;2.88;;;;;;;;;;5054851;28;20017;-36
2022/04/23 01:10:26;;;;;;;4.00;2.90;;;;;;;;;;5054993;28;20644;-36
2022/04/23 01:12:53;;;;;;;3.95;3.15;;;;;;;;;;5054633;28;20063;-37
2022/04/23 01:15:20;;;;;;;7.38;3.28;;;;;;;;;;5055036;28;20479;-37
2022/04/23 01:17:47;;;;;;;5.05;2.55;;;;;;;;;;5054994;28;20547;-36
2022/04/23 01:20:14;;;;;;;4.10;2.80;;;;;;;;;;5054877;28;20025;-36
2022/04/23 01:22:40;;;;;;;3.95;2.58;;;;;;;;;;5054918;28;20056;-37
2022/04/23 01:25:07;;;;;;;3.33;2.38;;;;;;;;;;5054617;28;20033;-37
2022/04/23 01:27:34;;;;;;;3.80;2.92;;;;;;;;;;5054643;28;20037;-36
2022/04/23 01:29:59;;;;;;;4.82;2.67;;;;;;;;;;5054602;28;20021;-36
2022/04/23 01:32:25;;;;;;;4.38;3.10;;;;;;;;;;5054479;28;20052;-37
2022/04/23 01:34:50;;;;;;;2.95;2.50;;;;;;;;;;5054330;28;20021;-36
2022/04/23 01:37:17;;;;;;;2.60;2.28;;;;;;;;;;5054472;28;20033;-37
2022/04/23 01:39:44;;;;;;;5.25;2.92;;;;;;;;;;5054353;28;20021;-36
2022/04/23 01:42:09;;;;;;;4.35;3.03;;;;;;;;;;5052996;28;20039;-36
2022/04/23 01:44:35;;;;;;;4.05;2.95;;;;;;;;;;5054431;28;20025;-37
2022/04/23 01:47:00;;;;;;;4.32;3.20;;;;;;;;;;5054462;28;20407;-36
2022/04/23 01:49:25;;;;;;;3.97;2.58;;;;;;;;;;5054480;28;20086;-37
2022/04/23 01:51:51;;;;;;;3.83;3.08;;;;;;;;;;5054063;28;20025;-36
2022/04/23 01:54:16;;;;;;;4.35;2.90;;;;;;;;;;5054111;28;20562;-36
2022/04/23 01:56:41;;;;;;;3.35;2.92;;;;;;;;;;5054155;28;20039;-37
2022/04/23 01:59:06;;;;;;;3.92;2.47;;;;;;;;;;5054121;28;20013;-38
2022/04/23 02:01:32;;;;;;;5.55;3.00;;;;;;;;;;5054281;28;20057;-36
2022/04/23 02:03:57;;;;;;;2.67;2.22;;;;;;;;;;5053837;28;20079;-37
2022/04/23 02:06:23;;;;;;;3.80;2.58;;;;;;;;;;5052667;28;20039;-36
2022/04/23 02:08:49;;;;;;;6.13;2.67;;;;;;;;;;5053997;28;20033;-36
2022/04/23 02:11:14;;;;;;;5.32;2.60;;;;;;;;;;5053880;28;20064;-37
2022/04/23 02:13:39;;;;;;;4.60;2.80;;;;;;;;;;5053641;28;20391;-36
2022/04/23 02:16:05;;;;;;;4.13;2.40;;;;;;;;;;5053719;28;20483;-37
2022/04/23 02:18:30;;;;;;;5.40;3.20;;;;;;;;;;5053714;28;20032;-36
2022/04/23 02:20:56;;;;;;;4.28;2.55;;;;;;;;;;5053558;28;20036;-36
2022/04/23 02:23:21;;;;;;;4.28;2.50;;;;;;;;;;5053750;28;20017;-36
2022/04/23 02:25:47;;;;;;;4.82;3.28;;;;;;;;;;5053349;28;20135;-37
2022/04/23 02:28:12;;;;;;;3.60;2.55;;;;;;;;;;5053693;28;20021;-37
2022/04/23 02:30:38;;;;;;;3.60;2.60;;;;;;;;;;5053415;28;20032;-38
2022/04/23 02:33:04;;;;;;;4.10;2.50;;;;;;;;;;5053454;28;20092;-36
2022/04/23 02:35:29;;;;;;;4.38;2.95;;;;;;;;;;5053261;28;20029;-36
2022/04/23 02:37:56;;;;;;;7.80;2.88;;;;;;;;;;5053196;28;20053;-36
2022/04/23 02:40:22;;;;;;;4.07;2.53;;;;;;;;;;5053212;28;20033;-36
2022/04/23 02:42:48;;;;;;;3.10;2.22;;;;;;;;;;5053404;28;20023;-36
2022/04/23 02:45:15;;;;;;;2.80;2.13;;;;;;;;;;5053052;28;20387;-36
2022/04/23 02:47:44;;;;;;;2.80;2.35;;;;;;;;;;5053030;28;20074;-37
2022/04/23 02:50:09;;;;;;;7.43;2.75;;;;;;;;;;5053144;28;20025;-36
2022/04/23 02:52:35;;;;;;;4.43;2.50;;;;;;;;;;5052953;28;20584;-36
2022/04/23 02:55:01;;;;;;;4.50;2.70;;;;;;;;;;5052922;28;20063;-36
2022/04/23 02:57:26;;;;;;;5.00;3.00;;;;;;;;;;5051691;28;20047;-37
2022/04/23 02:59:51;;;;;;;3.25;2.95;;;;;;;;;;5052995;28;20388;-36
2022/04/23 03:02:17;;;;;;;4.57;2.80;;;;;;;;;;5052811;28;20032;-36
2022/04/23 03:04:43;;;;;;;3.58;2.38;;;;;;;;;;5052564;28;20131;-36
2022/04/23 03:07:10;;;;;;;4.78;2.92;;;;;;;;;;5050848;28;20108;-36
2022/04/23 03:09:36;;;;;;;5.93;3.42;;;;;;;;;;5053020;28;20104;-36
2022/04/23 03:12:01;;;;;;;3.33;2.42;;;;;;;;;;5052636;28;20559;-36
2022/04/23 03:14:26;;;;;;;5.05;3.10;;;;;;;;;;5052553;28;20036;-36
2022/04/23 03:16:52;;;;;;;3.35;2.30;;;;;;;;;;5052520;28;20041;-37
2022/04/23 03:19:17;;;;;;;5.22;3.15;;;;;;;;;;5052760;28;20037;-37
2022/04/23 03:21:43;;;;;;;4.10;2.60;;;;;;;;;;5052388;28;20013;-36
2022/04/23 03:24:08;;;;;;;5.03;2.85;;;;;;;;;;5052524;28;20143;-37
2022/04/23 03:26:33;;;;;;;4.18;2.65;;;;;;;;;;5052442;28;20517;-36
2022/04/23 03:28:59;;;;;;;10.80;2.55;;;;;;;;;;5052211;28;20024;-36
2022/04/23 03:31:24;;;;;;;4.40;3.13;;;;;;;;;;5052508;28;20029;-36
2022/04/23 03:33:49;;;;;;;3.83;2.50;;;;;;;;;;5050897;28;20029;-36
2022/04/23 03:36:16;;;;;;;4.15;2.33;;;;;;;;;;5052224;28;20024;-36
2022/04/23 03:38:42;;;;;;;3.88;3.00;;;;;;;;;;5052399;28;20074;-36
2022/04/23 03:41:07;;;;;;;5.78;2.70;;;;;;;;;;5052106;28;20025;-37
2022/04/23 03:43:33;;;;;;;5.95;3.03;;;;;;;;;;5052175;28;20025;-36
2022/04/23 03:45:59;;;;;;;5.10;2.65;;;;;;;;;;5051913;28;20033;-36
2022/04/23 03:48:24;;;;;;;5.30;2.85;;;;;;;;;;5052022;28;20074;-36
2022/04/23 03:50:49;;;;;;;8.05;2.58;;;;;;;;;;5052042;28;20025;-39
2022/04/23 03:53:15;;;;;;;5.25;2.97;;;;;;;;;;5052229;28;20028;-36
2022/04/23 03:55:40;;;;;;;5.25;3.00;;;;;;;;;;5051697;28;20043;-36
2022/04/23 03:58:06;;;;;;;3.05;2.33;;;;;;;;;;5051834;28;20104;-37
2022/04/23 04:00:32;;;;;;;4.70;2.33;;;;;;;;;;5051790;28;20371;-36
2022/04/23 04:02:57;;;;;;;7.20;2.63;;;;;;;;;;5051519;28;20025;-36
2022/04/23 04:05:24;;;;;;;4.47;2.75;;;;;;;;;;5051864;28;20553;-37
2022/04/23 04:07:50;;;;;;;5.45;2.95;;;;;;;;;;5051527;28;20128;-37
2022/04/23 04:10:17;;;;;;;7.55;3.50;;;;;;;;;;5051669;28;20116;-36
2022/04/23 04:12:42;;;;;;;3.63;2.38;;;;;;;;;;5051460;28;20073;-37
2022/04/23 04:15:09;;;;;;;3.67;2.60;;;;;;;;;;5051785;28;20075;-36
2022/04/23 04:17:36;;;;;;;6.63;3.05;;;;;;;;;;5051180;28;20025;-36
2022/04/23 04:20:02;;;;;;;3.42;2.15;;;;;;;;;;5050942;28;20111;-36
2022/04/23 04:22:28;;;;;;;2.95;2.22;;;;;;;;;;5051653;28;20111;-36
2022/04/23 04:24:53;;;;;;;3.53;2.38;;;;;;;;;;5051493;28;20079;-36
2022/04/23 04:27:19;;;;;;;3.95;2.65;;;;;;;;;;5051612;28;20025;-36
2022/04/23 04:29:44;;;;;;;3.95;2.75;;;;;;;;;;5050386;28;20095;-37
2022/04/23 04:32:12;;;;;;;3.17;2.13;;;;;;;;;;5051530;28;20507;-36
2022/04/23 04:34:38;;;;;;;4.43;2.40;;;;;;;;;;5051261;28;20021;-36
2022/04/23 04:37:04;;;;;;;3.28;2.67;;;;;;;;;;5051292;28;20487;-37
2022/04/23 04:39:30;;;;;;;2.42;2.05;;;;;;;;;;5051216;28;20075;-36
2022/04/23 04:41:55;;;;;;;3.42;2.40;;;;;;;;;;5051202;28;20409;-36
2022/04/23 04:44:21;;;;;;;4.20;3.13;;;;;;;;;;5051335;28;20021;-37
2022/04/23 04:46:46;;;;;;;4.88;2.50;;;;;;;;;;5051078;28;20048;-37
2022/04/23 04:49:11;;;;;;;3.22;1.95;;;;;;;;;;5051223;28;20020;-36
2022/04/23 04:51:37;;;;;;;2.08;1.67;;;;;;;;;;5051102;28;20107;-36
2022/04/23 04:54:03;;;;;;;8.05;2.28;;;;;;;;;;5050961;28;20119;-36
2022/04/23 04:56:29;;;;;;;3.38;2.17;;;;;;;;;;5051419;28;20033;-36
2022/04/23 04:58:54;;;;;;;2.55;2.08;;;;;;;;;;5050981;28;20530;-36
2022/04/23 05:01:20;;;;;;;2.67;2.05;;;;;;;;;;5051066;28;20075;-36
2022/04/23 05:03:45;;;;;;;2.78;1.92;;;;;;;;;;5051087;28;20107;-36
2022/04/23 05:06:11;;;;;;;1.88;1.70;;;;;;;;;;5051103;28;20119;-36
2022/04/23 05:08:36;;;;;;;4.90;3.70;;;;;;;;;;5049991;28;20028;-36
2022/04/23 05:11:05;;;;;;;3.85;2.45;;;;;;;;;;5050658;28;20526;-36
2022/04/23 05:13:30;;;;;;;3.00;1.98;;;;;;;;;;5049739;28;20107;-37
2022/04/23 05:15:56;;;;;;;3.90;1.70;;;;;;;;;;5050792;28;20456;-37
2022/04/23 05:18:21;;;;;;;3.67;2.25;;;;;;;;;;5050886;28;20032;-36
2022/04/23 05:20:47;;;;;;;2.33;1.98;;;;;;;;;;5050810;28;20021;-36
2022/04/23 05:23:13;;;;;;;3.15;2.38;;;;;;;;;;5050824;28;20109;-36
2022/04/23 05:25:38;;;;;;;2.40;1.85;;;;;;;;;;5050734;28;20076;-36
2022/04/23 05:28:04;;;;;;;2.42;2.08;;;;;;;;;;5051046;28;20471;-36
2022/04/23 05:30:29;;;;;;;6.47;2.25;;;;;;;;;;5052956;28;20390;-36
2022/04/23 05:32:54;;;;;;;3.88;2.30;;;;;;;;;;5054836;28;20020;-36
2022/04/23 05:35:20;;;;;;;2.03;1.80;;;;;;;;;;5054447;28;20517;-36
2022/04/23 05:37:45;;;;;;;10.55;2.10;;;;;;;;;;5054683;28;20033;-36
2022/04/23 05:40:11;;;;;;;3.03;2.30;;;;;;;;;;5053272;28;20130;-37
2022/04/23 05:42:36;;;;;;;1.95;1.65;;;;;;;;;;5054264;28;20506;-36
2022/04/23 05:45:02;;;;;;;3.75;2.00;;;;;;;;;;5054177;28;20072;-37
2022/04/23 05:47:27;;;;;;;1.70;1.17;;;;;;;;;;5054201;28;20024;-36
2022/04/23 05:49:53;;;;;;;2.03;1.73;;;;;;;;;;5054164;28;20079;-36
2022/04/23 05:52:18;;;;;;;2.78;1.55;;;;;;;;;;5054511;28;20017;-36
2022/04/23 05:54:44;;;;;;;2.58;1.55;;;;;;;;;;5053942;28;20040;-36
2022/04/23 05:57:09;;;;;;;2.67;1.92;;;;;;;;;;5054112;28;20074;-36
2022/04/23 05:59:35;;;;;;;2.08;1.40;;;;;;;;;;5054110;28;20025;-36
2022/04/23 06:02:00;;;;;;;1.88;1.33;;;;;;;;;;5053883;28;20029;-36
2022/04/23 06:04:27;;;;;;;1.10;1.00;;;;;;;;;;5052685;28;20098;-36
2022/04/23 06:06:53;;;;;;;3.25;1.73;;;;;;;;;;5054048;28;20025;-36
2022/04/23 06:09:19;;;;;;;2.10;1.38;;;;;;;;;;5053941;28;20060;-37
2022/04/23 06:11:44;;;;;;;1.75;1.63;;;;;;;;;;5053689;28;20049;-36
2022/04/23 06:14:10;;;;;;;3.53;2.15;;;;;;;;;;5053766;28;20029;-36
2022/04/23 06:16:37;;;;;;;2.38;1.67;;;;;;;;;;5053792;28;20786;-36
2022/04/23 06:19:03;;;;;;;1.13;1.02;;;;;;;;;;5053543;28;20029;-36
2022/04/23 06:21:28;;;;;;;1.65;1.40;;;;;;;;;;5053673;28;20024;-37
2022/04/23 06:23:54;;;;;;;2.15;1.25;;;;;;;;;;5053434;28;20021;-36
2022/04/23 06:26:19;;;;;;;1.75;1.23;;;;;;;;;;5053442;28;20021;-36
2022/04/23 06:28:45;;;;;;;7.47;1.52;;;;;;;;;;5053701;28;20060;-36
2022/04/23 06:31:10;;;;;;;2.35;1.73;;;;;;;;;;5053583;28;20029;-36
2022/04/23 06:33:36;;;;;;;2.03;1.42;;;;;;;;;;5052012;28;20033;-37
2022/04/23 06:36:01;;;;;;;1.35;1.08;;;;;;;;;;5053568;28;20021;-37
2022/04/23 06:38:27;;;;;;;2.33;1.48;;;;;;;;;;5053339;28;20480;-36
2022/04/23 06:40:53;;;;;;;1.65;1.40;;;;;;;;;;5051273;28;20052;-36
2022/04/23 06:43:19;;;;;;;1.50;1.40;;;;;;;;;;5052998;28;20036;-37
2022/04/23 06:45:45;;;;;;;2.17;1.38;;;;;;;;;;5052963;28;20037;-36
2022/04/23 06:48:11;;;;;;;2.50;2.00;;;;;;;;;;5053096;28;20032;-36
2022/04/23 06:50:36;;;;;;;1.85;1.58;;;;;;;;;;5053327;28;20032;-37
2022/04/23 06:53:03;;;;;;;3.67;1.85;;;;;;;;;;5053338;28;20029;-36
2022/04/23 06:55:28;;;;;;;1.40;1.30;;;;;;;;;;5052900;28;20024;-36
2022/04/23 06:57:54;;;;;;;2.65;1.73;;;;;;;;;;5052785;28;20029;-36
2022/04/23 07:00:23;;;;;;;2.35;1.95;;;;;;;;;;5052892;28;20047;-36
2022/04/23 07:02:50;;;;;;;3.78;1.38;;;;;;;;;;5052629;28;20036;-36
2022/04/23 07:05:16;;;;;;;1.70;1.33;;;;;;;;;;5052705;28;20475;-36
2022/04/23 07:07:41;;;;;;;2.08;1.67;;;;;;;;;;5052824;28;20040;-36
2022/04/23 07:10:07;;;;;;;3.42;1.52;;;;;;;;;;5052857;28;20608;-36
2022/04/23 07:12:33;;;;;;;2.60;1.77;;;;;;;;;;5052564;28;20539;-36
2022/04/23 07:14:59;;;;;;;2.90;1.58;;;;;;;;;;5052436;28;20029;-36
2022/04/23 07:17:25;;;;;;;2.08;1.40;;;;;;;;;;5052661;28;20025;-36
2022/04/23 07:19:53;;;;;;;2.55;1.75;;;;;;;;;;5052395;28;20373;-36
2022/04/23 07:22:19;;;;;;;1.90;1.33;;;;;;;;;;5052408;28;20033;-36
2022/04/23 07:24:45;;;;;;;6.28;1.23;;;;;;;;;;5052282;28;20029;-36
2022/04/23 07:27:11;;;;;;;8.75;1.95;;;;;;;;;;5052418;28;20036;-36
2022/04/23 07:29:37;;;;;;;2.58;1.23;;;;;;;;;;5052676;28;20021;-36
2022/04/23 07:32:03;;;;;;;2.30;1.40;;;;;;;;;;5052243;28;20025;-36
2022/04/23 07:37:31;;;;;;;2.22;1.40;;;;;;;;;;5052550;28;20032;-36
2022/04/23 07:39:58;;;;;;;1.60;1.50;;;;;;;;;;5052423;28;20387;-36
2022/04/23 07:42:24;;;;;;;1.60;1.08;;;;;;;;;;5052087;28;20482;-36
2022/04/23 07:44:49;;;;;;;1.52;1.40;;;;;;;;;;5051792;28;20131;-37
2022/04/23 07:47:15;;;;;;;2.67;1.85;;;;;;;;;;5052326;28;20017;-36
2022/04/23 07:49:41;;;;;;;1.55;1.23;;;;;;;;;;5050772;28;20021;-36
2022/04/23 07:52:07;;;;;;;2.65;1.92;;;;;;;;;;5051723;28;20017;-37
2022/04/23 07:54:32;;;;;;;5.95;1.58;;;;;;;;;;5051902;28;20458;-36
2022/04/23 07:56:58;;;;;;;2.08;1.48;;;;;;;;;;5052063;28;20021;-36
2022/04/23 07:59:24;;;;;;;1.63;1.33;;;;;;;;;;5051808;28;20050;-36
2022/04/23 08:01:50;;;;;;;3.83;1.38;;;;;;;;;;5051604;28;20131;-36
2022/04/23 08:04:15;;;;;;;3.45;2.00;;;;;;;;;;5051628;28;20043;-37
2022/04/23 08:06:41;;;;;;;1.42;1.25;;;;;;;;;;5051602;28;20017;-36
2022/04/23 08:09:07;;;;;;;2.30;1.85;;;;;;;;;;5051587;28;20032;-36
2022/04/23 08:11:33;;;;;;;9.30;2.05;;;;;;;;;;5051477;28;20474;-37
2022/04/23 08:13:58;;;;;;;1.60;1.13;;;;;;;;;;5051603;28;20120;-36
2022/04/23 08:16:26;;;;;;;4.35;2.17;;;;;;;;;;5051870;28;20575;-37
2022/04/23 08:18:52;;;;;;;2.25;1.77;;;;;;;;;;5051450;28;20037;-37
2022/04/23 08:21:18;;;;;;;3.20;1.40;;;;;;;;;;5051401;28;20028;-36
2022/04/23 08:23:44;;;;;;;2.08;1.65;;;;;;;;;;5051628;28;20033;-37
2022/04/23 08:26:09;;;;;;;12.00;2.47;;;;;;;;;;5051137;28;20502;-36
2022/04/23 08:31:19;;;;;;;3.33;2.03;;;;;;;;;;5051647;28;20384;-36
2022/04/23 08:34:00;;;;;;;1.95;1.75;;;;;;;;;;5051179;28;20013;-36
2022/04/23 08:36:27;;;;;;;2.78;1.80;;;;;;;;;;5051289;28;20204;-36
2022/04/23 08:38:56;;;;;;;4.03;2.22;;;;;;;;;;5051283;28;20025;-36
2022/04/23 08:41:31;;;;;;;6.00;2.28;;;;;;;;;;5051215;28;20033;-36
2022/04/23 08:44:04;;;;;;;3.33;1.73;;;;;;;;;;5051327;28;20129;-42
2022/04/23 08:46:30;;;;;;;1.90;1.40;;;;;;;;;;5051448;28;20029;-36
2022/04/23 08:49:05;;;;;;;2.58;1.80;;;;;;;;;;5050944;28;20053;-36
2022/04/23 08:51:33;;;;;;;1.45;1.35;;;;;;;;;;5051261;28;20052;-37
2022/04/23 08:54:00;;;;;;;4.47;2.08;;;;;;;;;;5051093;28;20041;-37
2022/04/23 08:56:25;;;;;;;2.67;1.98;;;;;;;;;;5051414;28;20040;-36
2022/04/23 08:58:51;;;;;;;2.70;1.65;;;;;;;;;;5051245;28;20025;-36
2022/04/23 09:01:17;;;;;;;2.47;2.00;;;;;;;;;;5051145;28;20037;-36
2022/04/23 09:03:43;;;;;;;2.53;1.27;;;;;;;;;;5050990;28;20367;-36
2022/04/23 09:06:08;;;;;;;3.05;1.70;;;;;;;;;;5054513;28;20044;-36
2022/04/23 09:08:33;;;;;;;1.52;1.30;;;;;;;;;;5055065;28;20020;-36
2022/04/23 09:10:59;;;;;;;1.70;1.33;;;;;;;;;;5054611;28;20039;-37
2022/04/23 09:13:28;;;;;;;2.55;1.50;;;;;;;;;;5054991;28;20128;-36
2022/04/23 09:24:45;;;;;;;1.77;1.27;;;;;;;;;;5054635;28;20037;-36
2022/04/23 09:27:10;;;;;;;1.52;1.33;;;;;;;;;;5054949;28;20021;-36
2022/04/23 09:29:36;;;;;;;2.20;1.63;;;;;;;;;;5054845;28;20037;-36
2022/04/23 09:32:14;;;;;;;1.63;1.45;;;;;;;;;;5054461;28;20100;-37
2022/04/23 09:34:40;;;;;;;3.83;1.48;;;;;;;;;;5054799;28;20533;-36
2022/04/23 09:37:05;;;;;;;2.35;1.48;;;;;;;;;;5054532;28;20017;-36
2022/04/23 09:39:34;;;;;;;1.63;1.30;;;;;;;;;;5054435;28;20056;-36
2022/04/23 09:42:12;;;;;;;1.92;1.58;;;;;;;;;;5054662;28;20504;-36
2022/04/23 09:44:38;;;;;;;4.15;1.30;;;;;;;;;;5054207;28;20036;-37
2022/04/23 09:47:04;;;;;;;1.85;1.45;;;;;;;;;;5054520;28;20029;-36
2022/04/23 09:49:29;;;;;;;4.28;1.83;;;;;;;;;;5053036;28;20495;-36
2022/04/23 09:52:02;;;;;;;1.60;1.33;;;;;;;;;;5052812;28;20384;-36
2022/04/23 09:54:28;;;;;;;3.37;1.80;;;;;;;;;;5054442;28;20033;-36
2022/04/23 09:56:54;;;;;;;2.70;1.48;;;;;;;;;;5054011;28;20285;-36
2022/04/23 09:59:20;;;;;;;1.33;1.10;;;;;;;;;;5054082;28;20484;-36
2022/04/23 10:01:47;;;;;;;4.35;1.20;;;;;;;;;;5054261;28;20082;-37
2022/04/23 10:04:13;;;;;;;1.88;1.48;;;;;;;;;;5053877;28;20036;-37
2022/04/23 10:06:41;;;;;;;2.45;1.45;;;;;;;;;;5053933;28;20021;-36
2022/04/23 10:09:08;;;;;;;2.15;1.48;;;;;;;;;;5054074;28;20025;-37
2022/04/23 10:11:36;;;;;;;2.03;1.67;;;;;;;;;;5053762;28;20132;-37
2022/04/23 10:14:04;;;;;;;2.85;1.63;;;;;;;;;;5053527;28;20024;-37
2022/04/23 10:16:31;;;;;;;3.15;1.70;;;;;;;;;;5052707;28;20029;-37
2022/04/23 10:18:57;;;;;;;2.05;1.73;;;;;;;;;;5053651;28;20040;-37
2022/04/23 10:21:42;;;;;;;2.28;1.50;;;;;;;;;;5053464;28;20431;-36
2022/04/23 10:24:13;;;;;;;2.63;1.70;;;;;;;;;;5052173;28;20083;-36
2022/04/23 10:26:53;;;;;;;2.65;1.70;;;;;;;;;;5052310;28;20033;-37
2022/04/23 10:29:20;;;;;;;1.92;1.48;;;;;;;;;;5053482;28;20107;-37
2022/04/23 10:32:05;;;;;;;3.35;1.80;;;;;;;;;;5053513;28;20102;-36
2022/04/23 10:34:31;;;;;;;4.32;2.00;;;;;;;;;;5053279;28;20373;-36
2022/04/23 10:37:16;;;;;;;3.25;1.67;;;;;;;;;;5053641;28;20092;-37
2022/04/23 10:39:42;;;;;;;2.22;1.73;;;;;;;;;;5053293;28;20028;-37
2022/04/23 10:42:14;;;;;;;2.20;1.75;;;;;;;;;;5053727;28;20020;-37
2022/04/23 10:44:40;;;;;;;2.03;1.65;;;;;;;;;;5051811;28;20052;-36
2022/04/23 10:47:12;;;;;;;2.40;1.55;;;;;;;;;;5053227;28;20518;-36
2022/04/23 10:49:37;;;;;;;1.90;1.45;;;;;;;;;;5053064;28;20118;-36
2022/04/23 10:52:03;;;;;;;4.55;1.70;;;;;;;;;;5053049;28;20084;-36
2022/04/23 10:54:56;;;;;;;5.65;2.13;;;;;;;;;;5053316;28;20475;-37
2022/04/23 10:57:23;;;;;;;3.05;1.77;;;;;;;;;;5051555;28;20033;-36
2022/04/23 10:59:53;;;;;;;2.85;1.80;;;;;;;;;;5052874;28;20028;-36
2022/04/23 11:02:19;;;;;;;3.28;1.88;;;;;;;;;;5052880;28;20032;-37
2022/04/23 11:13:26;;;;;;;3.25;2.28;;;;;;;;;;5052702;28;20395;-36
2022/04/23 11:16:07;;;;;;;2.17;1.40;;;;;;;;;;5052887;28;20032;-36
2022/04/23 11:18:33;;;;;;;2.97;1.77;;;;;;;;;;5052649;28;20112;-36
2022/04/23 11:21:18;;;;;;;4.63;1.80;;;;;;;;;;5052578;28;20017;-36
2022/04/23 11:23:45;;;;;;;2.67;1.88;;;;;;;;;;5052527;28;20087;-37
2022/04/23 11:26:14;;;;;;;2.65;1.50;;;;;;;;;;5052221;28;20522;-37
2022/04/23 11:28:41;;;;;;;4.18;2.20;;;;;;;;;;5052082;28;20036;-36
2022/04/23 11:31:25;;;;;;;2.15;1.85;;;;;;;;;;5052337;28;20468;-36
2022/04/23 11:33:58;;;;;;;1.50;1.40;;;;;;;;;;5052291;28;20029;-36
2022/04/23 11:36:25;;;;;;;3.22;1.55;;;;;;;;;;5052219;28;20361;-36
2022/04/23 11:38:54;;;;;;;6.70;1.65;;;;;;;;;;5052038;28;20080;-36
2022/04/23 11:41:26;;;;;;;2.78;2.28;;;;;;;;;;5052213;28;20037;-36
2022/04/23 11:43:56;;;;;;;2.80;1.23;;;;;;;;;;5051999;28;20032;-36
2022/04/23 11:46:22;;;;;;;1.92;1.50;;;;;;;;;;5052302;28;20102;-37
2022/04/23 11:48:49;;;;;;;2.10;1.48;;;;;;;;;;5051925;28;20483;-37
2022/04/23 11:51:15;;;;;;;2.42;1.75;;;;;;;;;;5052027;28;20060;-36
2022/04/23 11:53:52;;;;;;;3.42;1.70;;;;;;;;;;5052010;28;20464;-36
2022/04/23 11:56:33;;;;;;;2.47;1.63;;;;;;;;;;5051833;28;20040;-37
2022/04/23 11:59:00;;;;;;;9.52;1.52;;;;;;;;;;5051771;28;20033;-36
2022/04/23 12:01:27;;;;;;;1.85;1.20;;;;;;;;;;5051774;28;20085;-36
2022/04/23 12:03:54;;;;;;;2.85;1.88;;;;;;;;;;5051602;28;20127;-37
2022/04/23 12:06:21;;;;;;;2.20;1.42;;;;;;;;;;5051739;28;20029;-37
2022/04/23 12:08:48;;;;;;;2.00;1.80;;;;;;;;;;5051685;28;20032;-36
2022/04/23 12:11:20;;;;;;;2.28;1.83;;;;;;;;;;5051438;28;20633;-37
2022/04/23 12:13:52;;;;;;;2.35;1.88;;;;;;;;;;5051638;28;20098;-36
2022/04/23 12:16:36;;;;;;;3.22;1.88;;;;;;;;;;5050502;28;20448;-37
2022/04/23 12:19:06;;;;;;;3.95;2.38;;;;;;;;;;5050190;28;20468;-37
2022/04/23 12:21:32;;;;;;;5.85;2.35;;;;;;;;;;5050243;28;20124;-36
2022/04/23 12:23:58;;;;;;;2.35;1.70;;;;;;;;;;5051509;28;20033;-36
2022/04/23 12:26:29;;;;;;;3.13;2.33;;;;;;;;;;5051398;28;20075;-36
2022/04/23 12:42:23;;;;;;;5.85;1.98;;;;;;;;;;5051368;28;20025;-36
2022/04/23 12:44:51;;;;;;;7.60;2.08;;;;;;;;;;5050964;28;20524;-36
2022/04/23 12:47:26;;;;;;;3.97;1.90;;;;;;;;;;5051198;28;20110;-36
2022/04/23 12:49:55;;;;;;;3.30;2.13;;;;;;;;;;5051042;28;20025;-36
2022/04/23 12:52:22;;;;;;;3.05;2.33;;;;;;;;;;5051170;28;20021;-36
2022/04/23 12:55:06;;;;;;;4.80;2.22;;;;;;;;;;5051314;28;20039;-37
2022/04/23 12:57:33;;;;;;;3.33;2.45;;;;;;;;;;5051063;28;20033;-37
2022/04/23 13:00:00;;;;;;;7.00;2.22;;;;;;;;;;5051317;28;20525;-36
2022/04/23 13:02:39;;;;;;;3.38;2.22;;;;;;;;;;5051426;28;20167;-36
2022/04/23 13:05:06;;;;;;;4.88;2.60;;;;;;;;;;5051093;28;20033;-37
2022/04/23 13:10:17;;;;;;;2.85;2.33;;;;;;;;;;5051098;28;20029;-36
2022/04/23 13:12:44;;;;;;;4.10;2.50;;;;;;;;;;5050762;28;20041;-37
2022/04/23 13:15:15;;;;;;;4.18;2.58;;;;;;;;;;5050872;28;20025;-36
2022/04/23 13:17:42;;;;;;;4.75;2.90;;;;;;;;;;5050872;28;20839;-36
2022/04/23 13:20:12;;;;;;;3.80;2.47;;;;;;;;;;5050735;28;20021;-36
2022/04/23 13:22:38;;;;;;;4.38;2.47;;;;;;;;;;5050852;28;20510;-36
2022/04/23 13:25:05;;;;;;;5.60;3.00;;;;;;;;;;5050680;28;20025;-37
2022/04/23 13:27:31;;;;;;;4.25;2.70;;;;;;;;;;5050801;28;20025;-36
2022/04/23 13:29:57;;;;;;;5.20;2.95;;;;;;;;;;5050742;28;20093;-37
2022/04/23 13:32:23;;;;;;;3.97;2.10;;;;;;;;;;5049513;28;20021;-36
2022/04/23 13:34:49;;;;;;;3.78;2.67;;;;;;;;;;5050711;28;20025;-37
2022/04/23 13:37:14;;;;;;;4.22;2.88;;;;;;;;;;5051098;28;20028;-37
2022/04/23 13:39:40;;;;;;;5.68;2.70;;;;;;;;;;5050682;28;20372;-36
2022/04/23 13:42:06;;;;;;;4.82;2.90;;;;;;;;;;5050725;28;20108;-36
2022/04/23 13:44:31;;;;;;;4.47;2.47;;;;;;;;;;5050543;28;20017;-37
2022/04/23 13:46:57;;;;;;;2.70;2.25;;;;;;;;;;5050479;28;20033;-37
2022/04/23 13:49:23;;;;;;;6.53;2.80;;;;;;;;;;5050698;28;20017;-37
2022/04/23 13:51:49;;;;;;;4.47;2.67;;;;;;;;;;5053435;28;20391;-37
2022/04/23 13:54:15;;;;;;;3.35;2.17;;;;;;;;;;5054196;28;20017;-36
2022/04/23 13:56:42;;;;;;;4.85;2.63;;;;;;;;;;5054391;28;20035;-37
2022/04/23 13:59:10;;;;;;;9.77;2.42;;;;;;;;;;5054036;28;20059;-36
2022/04/23 14:01:37;;;;;;;4.15;2.25;;;;;;;;;;5054029;28;20043;-36
2022/04/23 14:12:15;;;;;;;3.75;3.00;;;;;;;;;;5053616;28;20523;-37
2022/04/23 14:14:40;;;;;;;2.42;2.22;;;;;;;;;;5054083;28;20029;-36
2022/04/23 14:17:06;;;;;;;3.33;2.13;;;;;;;;;;5053624;28;20025;-37
2022/04/23 14:19:32;;;;;;;3.85;2.40;;;;;;;;;;5053804;28;20044;-36
2022/04/23 14:21:58;;;;;;;5.72;2.45;;;;;;;;;;5053900;28;20092;-37
2022/04/23 14:24:24;;;;;;;4.78;2.00;;;;;;;;;;5053747;28;20412;-36
2022/04/23 14:26:50;;;;;;;3.20;2.45;;;;;;;;;;5053906;28;20440;-36
2022/04/23 14:29:15;;;;;;;4.78;2.85;;;;;;;;;;5053459;28;20048;-36
2022/04/23 14:31:44;;;;;;;3.72;2.58;;;;;;;;;;5053460;28;20037;-37
2022/04/23 14:34:10;;;;;;;5.18;2.78;;;;;;;;;;5053321;28;20027;-37
2022/04/23 14:36:36;;;;;;;5.50;2.67;;;;;;;;;;5053391;28;20115;-36
2022/04/23 14:39:02;;;;;;;3.33;2.45;;;;;;;;;;5053346;28;20490;-36
2022/04/23 14:41:28;;;;;;;2.50;2.22;;;;;;;;;;5052000;28;20119;-37
2022/04/23 14:43:54;;;;;;;3.90;2.47;;;;;;;;;;5053470;28;20021;-37
2022/04/23 14:46:20;;;;;;;4.07;2.10;;;;;;;;;;5053474;28;20072;-36
2022/04/23 14:48:52;;;;;;;1.92;1.52;;;;;;;;;;5053127;28;20017;-37
2022/04/23 14:54:02;;;;;;;2.15;1.60;;;;;;;;;;5053051;28;20078;-37
2022/04/23 14:56:30;;;;;;;2.05;1.83;;;;;;;;;;5053403;28;20029;-37
2022/04/23 14:58:56;;;;;;;1.52;1.05;;;;;;;;;;5052886;28;20032;-37
2022/04/23 15:01:22;;;;;;;2.05;1.67;;;;;;;;;;5053053;28;20463;-36
2022/04/23 15:03:48;;;;;;;7.97;1.77;;;;;;;;;;5052109;28;20108;-36
2022/04/23 15:06:18;;;;;;;1.85;1.67;;;;;;;;;;5052680;28;20112;-37
2022/04/23 15:08:43;;;;;;;2.55;1.33;;;;;;;;;;5053064;28;20021;-37
2022/04/23 15:11:10;;;;;;;1.20;1.10;;;;;;;;;;5052461;28;20447;-37
2022/04/23 15:13:35;;;;;;;1.30;0.95;;;;;;;;;;5052751;28;20021;-37
2022/04/23 15:16:02;;;;;;;1.67;1.25;;;;;;;;;;5052818;28;20494;-37
2022/04/23 15:18:27;;;;;;;1.85;1.20;;;;;;;;;;5052710;28;20021;-37
2022/04/23 15:20:53;;;;;;;1.70;1.60;;;;;;;;;;5052761;28;20028;-37
2022/04/23 15:23:19;;;;;;;1.27;1.13;;;;;;;;;;5052545;28;20052;-37
2022/04/23 15:25:45;;;;;;;2.33;1.38;;;;;;;;;;5052448;28;20108;-37
2022/04/23 15:28:10;;;;;;;1.70;1.17;;;;;;;;;;5052346;28;20100;-37
2022/04/23 15:30:36;;;;;;;2.13;1.05;;;;;;;;;;5052813;28;20024;-37
2022/04/23 15:33:01;;;;;;;4.35;0.98;;;;;;;;;;5052227;28;20070;-37